Time;durP1;ratioP1;P1;durP2;ratioP2;P2;SDS_P1;SDS_P2;PMS_P1;PMS_P2;Temp;Humidity;BMP_temperature;BMP_pressure;BME280_temperature;BME280_humidity;BME280_pressure;Samples;Min_cycle;Max_cycle;Signal;HPM_P1;HPM_P2
2023/03/09 00:00:39;;;;;;;9.77;5.27;;;;;;;1.07;100.00;99608.44;4975869;28;20196;-68
2023/03/09 00:03:05;;;;;;;8.33;5.57;;;;;;;1.07;100.00;99608.44;4975702;28;20181;-68
2023/03/09 00:05:30;;;;;;;9.03;5.83;;;;;;;1.06;100.00;99608.38;4971797;28;20280;-68
2023/03/09 00:07:56;;;;;;;10.67;5.20;;;;;;;1.07;100.00;99620.19;4973835;28;20218;-68
2023/03/09 00:10:22;;;;;;;6.47;5.03;;;;;;;1.05;100.00;99621.78;4971042;28;20205;-68
2023/03/09 00:12:48;;;;;;;8.80;5.83;;;;;;;1.05;100.00;99625.16;4975783;28;20210;-69
2023/03/09 00:15:13;;;;;;;7.30;5.10;;;;;;;1.07;100.00;99623.56;4966839;28;20315;-68
2023/03/09 00:17:39;;;;;;;6.40;5.23;;;;;;;1.10;100.00;99627.84;4975043;28;20212;-68
2023/03/09 00:20:18;;;;;;;6.07;4.53;;;;;;;1.08;100.00;99630.31;4971347;28;20192;-68
2023/03/09 00:22:49;;;;;;;5.50;4.57;;;;;;;1.09;100.00;99634.53;4972925;28;20207;-68
2023/03/09 00:25:15;;;;;;;8.67;5.10;;;;;;;1.11;100.00;99630.44;4971428;28;20280;-68
2023/03/09 00:27:41;;;;;;;7.43;5.17;;;;;;;1.10;100.00;99621.13;4974645;28;20219;-68
2023/03/09 00:30:08;;;;;;;8.23;5.20;;;;;;;1.10;100.00;99612.72;4975407;28;20231;-68
2023/03/09 00:32:34;;;;;;;8.37;5.00;;;;;;;1.07;100.00;99608.44;4973132;28;20251;-68
2023/03/09 00:34:59;;;;;;;8.83;5.30;;;;;;;1.08;100.00;99605.13;4975577;28;20212;-68
2023/03/09 00:37:25;;;;;;;7.33;5.00;;;;;;;1.09;100.00;99608.50;4970079;28;20209;-68
2023/03/09 00:39:50;;;;;;;6.97;5.20;;;;;;;1.05;100.00;99605.00;4970655;28;20195;-68
2023/03/09 00:42:16;;;;;;;8.23;5.30;;;;;;;1.07;100.00;99610.09;4972551;28;20193;-68
2023/03/09 00:44:41;;;;;;;8.03;5.40;;;;;;;1.07;100.00;99615.13;4974079;28;20318;-68
2023/03/09 00:47:07;;;;;;;8.33;5.10;;;;;;;1.09;100.00;99616.91;4972665;28;20200;-68
2023/03/09 00:49:32;;;;;;;6.03;4.73;;;;;;;1.09;100.00;99613.53;4974474;28;20200;-68
2023/03/09 00:51:58;;;;;;;8.23;5.10;;;;;;;1.08;100.00;99607.63;4969307;28;20247;-68
2023/03/09 00:54:23;;;;;;;10.60;4.97;;;;;;;1.08;100.00;99592.53;4972335;28;20212;-69
2023/03/09 00:56:50;;;;;;;5.80;4.73;;;;;;;1.08;100.00;99589.13;4972948;28;20199;-68
2023/03/09 00:59:15;;;;;;;7.47;5.03;;;;;;;1.11;100.00;99584.22;4956922;28;20533;-68
2023/03/09 01:01:41;;;;;;;8.67;5.23;;;;;;;1.10;100.00;99579.97;4975626;28;20231;-69
2023/03/09 01:04:06;;;;;;;5.50;4.50;;;;;;;1.10;100.00;99565.69;4973638;28;20287;-68
2023/03/09 01:06:32;;;;;;;6.90;5.40;;;;;;;1.07;100.00;99568.13;4969964;28;20664;-68
2023/03/09 01:08:57;;;;;;;7.33;4.90;;;;;;;1.07;100.00;99570.66;4974277;28;20200;-68
2023/03/09 01:11:24;;;;;;;9.07;5.00;;;;;;;1.08;100.00;99568.97;4969817;28;20765;-68
2023/03/09 01:13:51;;;;;;;6.30;4.40;;;;;;;1.09;100.00;99574.06;4973859;28;20307;-68
2023/03/09 01:16:17;;;;;;;6.77;4.57;;;;;;;1.08;100.00;99571.50;4967136;28;20296;-68
2023/03/09 01:18:42;;;;;;;7.20;4.53;;;;;;;1.09;100.00;99576.59;4972166;28;20195;-68
2023/03/09 01:21:08;;;;;;;5.77;4.30;;;;;;;1.10;100.00;99578.28;4970524;28;20251;-68
2023/03/09 01:23:36;;;;;;;7.37;4.60;;;;;;;1.09;100.00;99583.31;4972728;28;20215;-68
2023/03/09 01:26:02;;;;;;;8.67;4.80;;;;;;;1.09;100.00;99579.09;4969172;28;20196;-68
2023/03/09 01:28:27;;;;;;;9.73;5.47;;;;;;;1.09;100.00;99573.22;4972110;28;20216;-69
2023/03/09 01:30:53;;;;;;;6.97;4.80;;;;;;;1.10;100.00;99569.91;4973224;28;20203;-68
2023/03/09 01:33:18;;;;;;;7.10;4.47;;;;;;;1.10;100.00;99570.72;4974130;28;20213;-68
2023/03/09 01:35:44;;;;;;;6.33;5.10;;;;;;;1.08;100.00;99562.28;4971363;28;20246;-68
2023/03/09 01:38:09;;;;;;;6.60;4.90;;;;;;;1.06;100.00;99571.44;4971863;28;20569;-68
2023/03/09 01:40:35;;;;;;;6.87;4.67;;;;;;;1.09;100.00;99570.72;4968871;28;20650;-68
2023/03/09 01:43:20;;;;;;;8.63;4.70;;;;;;;1.09;100.00;99565.66;4973413;28;20197;-68
2023/03/09 01:45:48;;;;;;;8.40;5.23;;;;;;;1.07;100.00;99563.09;4963292;28;20316;-68
2023/03/09 01:48:14;;;;;;;5.93;4.50;;;;;;;1.09;100.00;99558.94;4972519;28;20188;-68
2023/03/09 01:50:41;;;;;;;8.87;4.87;;;;;;;1.06;100.00;99563.03;4973827;28;20210;-68
2023/03/09 01:53:15;;;;;;;5.63;4.70;;;;;;;1.06;100.00;99563.88;4986633;28;20700;-68
2023/03/09 01:55:46;;;;;;;7.87;4.47;;;;;;;1.09;100.00;99564.00;4968972;28;20200;-68
2023/03/09 01:58:17;;;;;;;6.77;5.00;;;;;;;1.09;100.00;99555.59;4970394;28;20243;-68
2023/03/09 02:00:46;;;;;;;8.03;5.00;;;;;;;1.09;100.00;99558.94;4964416;28;20200;-68
2023/03/09 02:03:17;;;;;;;9.33;5.20;;;;;;;1.08;100.00;99554.72;4971949;28;20193;-68
2023/03/09 02:05:55;;;;;;;7.43;4.83;;;;;;;1.08;100.00;99554.72;4983269;28;20196;-68
2023/03/09 02:08:21;;;;;;;8.77;5.00;;;;;;;1.07;100.00;99558.06;4969216;28;20772;-68
2023/03/09 02:11:05;;;;;;;7.90;5.10;;;;;;;1.05;100.00;99554.59;4969277;28;20196;-68
2023/03/09 02:13:36;;;;;;;7.60;5.00;;;;;;;1.05;100.00;99554.59;4971045;28;20627;-68
2023/03/09 02:16:02;;;;;;;6.27;4.60;;;;;;;1.08;100.00;99563.94;4968611;28;20200;-69
2023/03/09 02:18:28;;;;;;;7.80;4.80;;;;;;;1.08;100.00;99557.25;4976714;28;20215;-68
2023/03/09 02:21:05;;;;;;;8.00;5.37;;;;;;;1.05;100.00;99569.72;4968910;28;20193;-68
2023/03/09 02:23:42;;;;;;;9.07;5.00;;;;;;;1.02;100.00;99566.25;4973438;28;20263;-69
2023/03/09 02:26:21;;;;;;;7.20;5.40;;;;;;;0.99;100.00;99559.44;4964179;28;20251;-69
2023/03/09 02:28:48;;;;;;;8.57;6.00;;;;;;;0.97;100.00;99567.75;4983382;28;20599;-68
2023/03/09 02:31:14;;;;;;;8.03;4.80;;;;;;;0.98;100.00;99564.41;4972816;28;20203;-68
2023/03/09 02:33:40;;;;;;;6.37;4.93;;;;;;;0.96;100.00;99569.38;4955215;28;20565;-68
2023/03/09 02:36:07;;;;;;;9.10;5.50;;;;;;;0.96;100.00;99561.00;4986590;28;20267;-68
2023/03/09 02:38:37;;;;;;;7.93;5.10;;;;;;;0.93;100.00;99561.75;4973434;28;20201;-68
2023/03/09 02:41:06;;;;;;;9.40;6.20;;;;;;;0.92;100.00;99557.47;4965858;28;20200;-69
2023/03/09 02:43:42;;;;;;;7.90;5.10;;;;;;;0.93;100.00;99561.75;4968241;28;20228;-69
2023/03/09 02:46:07;;;;;;;7.17;5.27;;;;;;;0.93;100.00;99565.91;4967578;28;20196;-68
2023/03/09 02:48:36;;;;;;;8.90;4.70;;;;;;;0.92;100.00;99567.56;4969668;28;20199;-69
2023/03/09 02:51:02;;;;;;;6.67;5.07;;;;;;;0.94;100.00;99573.53;4967932;28;20197;-68
2023/03/09 02:53:28;;;;;;;7.90;5.37;;;;;;;0.93;100.00;99578.50;4970358;28;20219;-68
2023/03/09 02:55:54;;;;;;;7.70;5.20;;;;;;;0.93;100.00;99579.38;4967659;28;20574;-68
2023/03/09 02:58:20;;;;;;;6.43;4.93;;;;;;;0.94;100.00;99585.25;4967834;28;20200;-68
2023/03/09 03:00:47;;;;;;;8.57;5.13;;;;;;;0.93;100.00;99586.06;4971202;28;20700;-68
2023/03/09 03:03:14;;;;;;;7.00;4.97;;;;;;;0.94;100.00;99591.16;4966230;28;20188;-68
2023/03/09 03:05:40;;;;;;;7.00;4.70;;;;;;;0.93;100.00;99578.50;4970930;28;20371;-68
2023/03/09 03:08:06;;;;;;;9.53;4.90;;;;;;;0.93;100.00;99586.94;4963583;28;20192;-68
2023/03/09 03:10:31;;;;;;;7.30;4.97;;;;;;;0.91;100.00;99586.00;4974369;28;20199;-68
2023/03/09 03:12:56;;;;;;;9.53;5.23;;;;;;;0.92;100.00;99587.72;4972250;28;20196;-68
2023/03/09 03:15:22;;;;;;;7.87;5.13;;;;;;;0.90;100.00;99584.28;4972480;28;20220;-68
2023/03/09 03:17:48;;;;;;;6.90;5.00;;;;;;;0.91;100.00;99583.47;4967326;28;20679;-69
2023/03/09 03:20:14;;;;;;;8.73;5.00;;;;;;;0.91;100.00;99588.53;4971393;28;20192;-68
2023/03/09 03:22:42;;;;;;;6.47;4.80;;;;;;;0.90;100.00;99588.44;4985163;28;21017;-68
2023/03/09 03:25:08;;;;;;;7.17;5.20;;;;;;;0.91;100.00;99593.56;4973752;28;20215;-68
2023/03/09 03:27:38;;;;;;;7.73;5.03;;;;;;;0.94;100.00;99597.84;4969570;28;20227;-68
2023/03/09 03:30:06;;;;;;;9.87;5.57;;;;;;;0.94;100.00;99590.28;4971054;28;20609;-68
2023/03/09 03:32:33;;;;;;;5.97;4.73;;;;;;;0.93;100.00;99591.97;4974151;28;20188;-68
2023/03/09 03:34:59;;;;;;;6.87;4.60;;;;;;;0.92;100.00;99600.31;4974230;28;20231;-68
2023/03/09 03:37:25;;;;;;;7.47;5.30;;;;;;;0.94;100.00;99600.38;4969033;28;20193;-68
2023/03/09 03:39:51;;;;;;;7.17;5.27;;;;;;;0.92;100.00;99601.97;4969891;28;20244;-68
2023/03/09 03:42:17;;;;;;;7.63;5.23;;;;;;;0.91;100.00;99598.59;4974693;28;20193;-68
2023/03/09 03:44:42;;;;;;;9.50;6.10;;;;;;;0.92;100.00;99599.47;4975383;28;20265;-68
2023/03/09 03:47:10;;;;;;;8.53;5.50;;;;;;;0.90;100.00;99596.88;4990405;28;20262;-68
2023/03/09 03:49:36;;;;;;;9.03;6.03;;;;;;;0.90;100.00;99606.97;4970585;28;20666;-68
2023/03/09 03:52:04;;;;;;;9.67;6.10;;;;;;;0.91;100.00;99605.31;4973229;28;20215;-68
2023/03/09 03:54:30;;;;;;;9.47;6.00;;;;;;;0.92;100.00;99609.53;4957875;28;20204;-69
2023/03/09 03:56:57;;;;;;;8.93;6.50;;;;;;;0.93;100.00;99607.09;4968892;28;20204;-68
2023/03/09 03:59:22;;;;;;;12.00;6.17;;;;;;;0.94;100.00;99605.41;4968340;28;20650;-68
2023/03/09 04:01:48;;;;;;;11.43;6.20;;;;;;;0.92;100.00;99609.53;4974690;28;20590;-68
2023/03/09 04:04:14;;;;;;;9.37;6.60;;;;;;;0.91;100.00;99607.84;4971280;28;20258;-68
2023/03/09 04:06:47;;;;;;;9.87;6.47;;;;;;;0.93;100.00;99611.25;4969141;28;20282;-68
2023/03/09 04:09:13;;;;;;;10.10;7.07;;;;;;;0.94;100.00;99607.91;4972592;28;20192;-68
2023/03/09 04:11:38;;;;;;;9.07;6.23;;;;;;;0.93;100.00;99601.16;4972456;28;20574;-68
2023/03/09 04:14:06;;;;;;;12.80;6.70;;;;;;;0.91;100.00;99606.16;4969623;28;20686;-68
2023/03/09 04:16:31;;;;;;;12.27;7.47;;;;;;;0.92;100.00;99609.53;4976187;28;20247;-69
2023/03/09 04:18:57;;;;;;;10.33;6.80;;;;;;;0.94;100.00;99618.00;4974061;28;20202;-68
2023/03/09 04:21:23;;;;;;;11.23;7.03;;;;;;;0.94;100.00;99620.53;4974745;28;20272;-68
2023/03/09 04:23:49;;;;;;;10.53;7.10;;;;;;;0.93;100.00;99632.28;4967190;28;20213;-69
2023/03/09 04:26:15;;;;;;;9.17;6.57;;;;;;;0.94;100.00;99636.50;4973018;28;20200;-68
2023/03/09 04:29:07;;;;;;;15.20;7.30;;;;;;;0.93;100.00;99646.53;4985623;28;20212;-68
2023/03/09 04:31:33;;;;;;;11.93;7.23;;;;;;;0.92;100.00;99645.66;4974594;28;20235;-68
2023/03/09 04:34:00;;;;;;;10.80;6.93;;;;;;;0.93;100.00;99644.88;4969282;28;20591;-68
2023/03/09 04:36:26;;;;;;;10.30;7.07;;;;;;;0.94;100.00;99648.22;4973721;28;20197;-68
2023/03/09 04:38:52;;;;;;;15.10;7.83;;;;;;;0.95;100.00;99640.72;4968393;28;20193;-68
2023/03/09 04:41:19;;;;;;;11.30;7.33;;;;;;;0.92;100.00;99655.72;4974360;28;20291;-68
2023/03/09 04:43:50;;;;;;;11.50;7.50;;;;;;;0.94;100.00;99664.22;4966832;28;20214;-68
2023/03/09 04:46:17;;;;;;;11.17;8.17;;;;;;;0.96;100.00;99666.81;4975285;28;20239;-68
2023/03/09 04:48:43;;;;;;;12.20;7.07;;;;;;;0.95;100.00;99665.94;4970191;28;20193;-68
2023/03/09 04:51:08;;;;;;;10.83;7.07;;;;;;;0.96;100.00;99665.13;4953013;28;20250;-68
2023/03/09 04:53:34;;;;;;;13.03;7.87;;;;;;;0.96;100.00;99667.63;4971646;28;20243;-68
2023/03/09 04:56:00;;;;;;;11.30;8.00;;;;;;;0.97;100.00;99676.06;4972511;28;20201;-68
2023/03/09 04:58:26;;;;;;;14.20;8.00;;;;;;;0.94;100.00;99681.84;4973846;28;20250;-68
2023/03/09 05:00:52;;;;;;;12.33;7.57;;;;;;;0.95;100.00;99678.53;4976248;28;20195;-68
2023/03/09 05:03:19;;;;;;;13.37;7.93;;;;;;;0.94;100.00;99683.50;4972377;28;20279;-68
2023/03/09 05:05:52;;;;;;;11.90;8.03;;;;;;;0.95;100.00;99687.72;4968894;28;20741;-68
2023/03/09 05:08:19;;;;;;;12.20;8.03;;;;;;;0.94;100.00;99688.53;4973945;28;20232;-69
2023/03/09 05:10:45;;;;;;;12.60;8.13;;;;;;;0.97;100.00;99692.06;4979844;28;20221;-69
2023/03/09 05:13:11;;;;;;;13.03;7.97;;;;;;;0.98;100.00;99692.91;4968793;28;20214;-68
2023/03/09 05:15:39;;;;;;;13.37;8.90;;;;;;;0.96;100.00;99697.88;4957668;28;20204;-68
2023/03/09 05:18:06;;;;;;;12.60;8.00;;;;;;;0.93;100.00;99697.78;4972618;28;20195;-68
2023/03/09 05:20:33;;;;;;;13.10;8.67;;;;;;;0.94;100.00;99707.03;4969232;28;20705;-68
2023/03/09 05:23:01;;;;;;;14.50;8.23;;;;;;;0.94;100.00;99701.13;4973373;28;20200;-68
2023/03/09 05:25:27;;;;;;;13.80;8.27;;;;;;;0.94;100.00;99704.53;4971752;28;20978;-68
2023/03/09 05:27:54;;;;;;;14.63;8.67;;;;;;;0.94;100.00;99702.00;4974731;28;20771;-69
2023/03/09 05:30:20;;;;;;;13.60;9.13;;;;;;;0.94;100.00;99704.53;4970297;28;20189;-68
2023/03/09 05:32:47;;;;;;;17.80;9.73;;;;;;;0.93;100.00;99707.84;4976844;28;20192;-68
2023/03/09 05:35:12;;;;;;;14.67;8.97;;;;;;;0.93;100.00;99704.47;4949586;28;20812;-68
2023/03/09 05:37:38;;;;;;;13.63;8.67;;;;;;;0.93;100.00;99704.47;4975402;28;20207;-68
2023/03/09 05:40:13;;;;;;;16.67;10.20;;;;;;;0.93;100.00;99706.97;4974051;28;20710;-68
2023/03/09 05:42:41;;;;;;;15.67;9.83;;;;;;;0.90;100.00;99700.16;4977065;28;20196;-68
2023/03/09 05:45:08;;;;;;;16.43;10.17;;;;;;;0.92;100.00;99698.56;4968383;28;20863;-68
2023/03/09 05:47:35;;;;;;;17.10;10.00;;;;;;;0.93;100.00;99696.91;4976976;28;20188;-68
2023/03/09 05:50:03;;;;;;;21.33;10.40;;;;;;;0.94;100.00;99693.56;4970853;28;20199;-68
2023/03/09 05:52:29;;;;;;;15.60;9.93;;;;;;;0.93;100.00;99695.25;4977248;28;20200;-68
2023/03/09 05:54:55;;;;;;;23.67;13.13;;;;;;;0.94;100.00;99703.66;4970634;28;20299;-68
2023/03/09 05:57:21;;;;;;;20.70;16.47;;;;;;;0.93;100.00;99699.41;4974331;28;20203;-68
2023/03/09 05:59:49;;;;;;;18.63;13.33;;;;;;;0.91;100.00;99701.88;4968537;28;20202;-69
2023/03/09 06:02:15;;;;;;;18.27;10.60;;;;;;;0.93;100.00;99712.88;4975798;28;20204;-68
2023/03/09 06:04:42;;;;;;;17.43;10.43;;;;;;;0.94;100.00;99712.09;4969077;28;20215;-68
2023/03/09 06:07:09;;;;;;;17.33;10.87;;;;;;;0.93;100.00;99717.94;4975619;28;20246;-69
2023/03/09 06:09:41;;;;;;;17.20;11.73;;;;;;;0.92;100.00;99720.38;4973215;28;20638;-68
2023/03/09 06:12:12;;;;;;;17.43;10.77;;;;;;;0.93;100.00;99728.00;4975506;28;20211;-69
2023/03/09 06:14:40;;;;;;;17.57;10.53;;;;;;;0.93;100.00;99728.00;4969026;28;20226;-68
2023/03/09 06:17:06;;;;;;;18.43;10.60;;;;;;;0.95;100.00;99733.94;4971688;28;20843;-68
2023/03/09 06:19:32;;;;;;;17.47;10.50;;;;;;;0.95;100.00;99736.47;4972215;28;20736;-68
2023/03/09 06:21:58;;;;;;;18.27;11.03;;;;;;;0.91;100.00;99742.19;4970567;28;20200;-68
2023/03/09 06:24:24;;;;;;;17.17;10.90;;;;;;;0.90;100.00;99747.16;4973494;28;20208;-68
2023/03/09 06:26:50;;;;;;;17.53;11.43;;;;;;;0.94;100.00;99754.03;4971877;28;20291;-68
2023/03/09 06:29:26;;;;;;;18.70;11.00;;;;;;;0.93;100.00;99770.84;4971068;28;20203;-69
2023/03/09 06:31:51;;;;;;;18.33;11.20;;;;;;;0.98;100.00;99765.97;4973225;28;20649;-68
2023/03/09 06:34:18;;;;;;;18.07;11.40;;;;;;;0.98;100.00;99771.88;4970199;28;20938;-68
2023/03/09 06:36:44;;;;;;;17.30;10.30;;;;;;;1.01;100.00;99776.16;4970118;28;20227;-68
2023/03/09 06:39:11;;;;;;;18.87;10.57;;;;;;;1.02;100.00;99771.19;4969527;28;20193;-68
2023/03/09 06:41:38;;;;;;;16.50;10.80;;;;;;;1.05;100.00;99771.28;4973064;28;20283;-68
2023/03/09 06:44:14;;;;;;;19.60;10.83;;;;;;;1.08;100.00;99781.50;4970921;28;20231;-68
2023/03/09 06:46:43;;;;;;;20.67;10.47;;;;;;;1.12;100.00;99780.84;4971556;28;20199;-69
2023/03/09 06:49:09;;;;;;;16.57;10.67;;;;;;;1.20;100.00;99786.16;4971072;28;20207;-68
2023/03/09 06:51:35;;;;;;;18.03;11.10;;;;;;;1.25;100.00;99778.00;4972805;28;20223;-68
2023/03/09 06:54:01;;;;;;;19.30;12.17;;;;;;;1.34;100.00;99780.00;4975300;28;20239;-69
2023/03/09 06:56:32;;;;;;;18.03;10.93;;;;;;;1.38;100.00;99784.34;4972254;28;20282;-67
2023/03/09 06:58:57;;;;;;;16.30;10.70;;;;;;;1.46;100.00;99786.34;4970752;28;20727;-66
2023/03/09 07:01:24;;;;;;;18.93;11.73;;;;;;;1.47;100.00;99789.75;4971174;28;20283;-67
2023/03/09 07:03:52;;;;;;;17.53;11.10;;;;;;;1.57;100.00;99781.72;4975669;28;20200;-67
2023/03/09 07:06:17;;;;;;;17.63;10.80;;;;;;;1.63;100.00;99784.47;4969237;28;20247;-68
2023/03/09 07:08:43;;;;;;;16.90;10.47;;;;;;;1.70;100.00;99788.94;4978523;28;20719;-68
2023/03/09 07:11:09;;;;;;;19.57;10.47;;;;;;;1.76;100.00;99789.16;4972110;28;21618;-68
2023/03/09 07:13:34;;;;;;;15.90;10.70;;;;;;;1.87;100.00;99795.44;4974492;28;20219;-68
2023/03/09 07:16:04;;;;;;;15.67;10.40;;;;;;;1.89;100.00;99799.72;4965469;28;20658;-68
2023/03/09 07:18:30;;;;;;;19.13;11.60;;;;;;;1.90;100.00;99814.09;4973755;28;20283;-68
2023/03/09 07:20:59;;;;;;;16.37;10.93;;;;;;;1.97;100.00;99813.50;4972325;28;20904;-67
2023/03/09 07:23:24;;;;;;;18.77;10.70;;;;;;;1.98;100.00;99824.47;4972192;28;20655;-68
2023/03/09 07:25:50;;;;;;;18.00;10.60;;;;;;;2.00;100.00;99828.75;4973306;28;20192;-68
2023/03/09 07:28:15;;;;;;;16.53;10.87;;;;;;;2.01;100.00;99838.03;4966203;28;20227;-67
2023/03/09 07:30:41;;;;;;;16.93;10.77;;;;;;;2.05;100.00;99844.94;4993599;28;20197;-67
2023/03/09 07:33:08;;;;;;;15.87;10.77;;;;;;;2.15;100.00;99844.44;4991217;28;20302;-67
2023/03/09 07:35:34;;;;;;;16.37;10.83;;;;;;;2.19;100.00;99851.34;4991839;28;20673;-67
2023/03/09 07:37:59;;;;;;;18.13;10.83;;;;;;;2.27;100.00;99851.59;4991628;28;20609;-67
2023/03/09 07:40:25;;;;;;;17.77;11.40;;;;;;;2.35;100.00;99852.75;4990710;28;20188;-66
2023/03/09 07:42:52;;;;;;;18.00;11.40;;;;;;;2.45;100.00;99858.19;4988873;28;20806;-67
2023/03/09 07:45:35;;;;;;;18.90;10.77;;;;;;;2.49;100.00;99854.09;4988059;28;20696;-67
2023/03/09 07:48:01;;;;;;;15.80;11.63;;;;;;;2.60;100.00;99867.94;4991751;28;20278;-68
2023/03/09 07:50:26;;;;;;;18.43;12.00;;;;;;;2.72;100.00;99864.16;4990496;28;20210;-67
2023/03/09 07:52:54;;;;;;;15.30;10.53;;;;;;;2.83;100.00;99874.63;4991684;28;20219;-68
2023/03/09 07:55:22;;;;;;;13.40;9.50;;;;;;;2.88;100.00;99873.13;4994442;28;20207;-66
2023/03/09 07:57:47;;;;;;;18.90;11.20;;;;;;;2.95;100.00;99875.91;4989937;28;20238;-67
2023/03/09 08:00:20;;;;;;;16.10;10.17;;;;;;;3.03;100.00;99863.53;4989783;28;20219;-67
2023/03/09 08:02:46;;;;;;;16.13;10.47;;;;;;;3.10;100.00;99871.38;4991132;28;20302;-67
2023/03/09 08:05:13;;;;;;;15.33;10.30;;;;;;;3.19;100.00;99874.22;4987533;28;20587;-67
2023/03/09 08:07:42;;;;;;;13.77;9.33;;;;;;;3.25;100.00;99876.94;4990271;28;20290;-67
2023/03/09 08:10:09;;;;;;;15.17;9.53;;;;;;;3.36;100.00;99877.28;4993437;28;21569;-67
2023/03/09 08:12:35;;;;;;;15.47;9.97;;;;;;;3.42;100.00;99864.81;4992409;28;20265;-67
2023/03/09 08:15:00;;;;;;;15.43;9.90;;;;;;;3.48;100.00;99863.34;4996025;28;20223;-66
2023/03/09 08:17:27;;;;;;;15.63;9.30;;;;;;;3.62;100.00;99862.09;4992331;28;20207;-67
2023/03/09 08:19:53;;;;;;;13.70;9.77;;;;;;;3.64;100.00;99855.38;4995683;28;20715;-67
2023/03/09 08:22:19;;;;;;;15.57;10.47;;;;;;;3.70;100.00;99857.25;4994124;28;20196;-67
2023/03/09 08:24:44;;;;;;;15.03;10.03;;;;;;;3.90;100.00;99862.09;4993551;28;20724;-67
2023/03/09 08:27:10;;;;;;;17.53;11.50;;;;;;;4.01;100.00;99848.06;4992586;28;20283;-67
2023/03/09 08:29:35;;;;;;;16.37;9.80;;;;;;;4.02;100.00;99832.09;4993791;28;20216;-67
2023/03/09 08:32:05;;;;;;;14.73;9.50;;;;;;;4.02;100.00;99824.50;4989933;28;20242;-67
2023/03/09 08:34:30;;;;;;;13.33;10.27;;;;;;;4.18;100.00;99824.09;4993555;28;20215;-67
2023/03/09 08:36:57;;;;;;;14.70;9.73;;;;;;;4.31;100.00;99815.16;4992847;28;20253;-68
2023/03/09 08:39:22;;;;;;;15.43;9.30;;;;;;;4.48;100.00;99794.53;4994675;28;20192;-68
2023/03/09 08:41:47;;;;;;;17.47;11.33;;;;;;;4.60;100.00;99796.53;4996271;28;20192;-68
2023/03/09 08:44:13;;;;;;;18.83;10.13;;;;;;;4.72;100.00;99781.59;4994116;28;20208;-68
2023/03/09 08:46:38;;;;;;;15.70;9.87;;;;;;;4.98;100.00;99743.38;4994820;28;20561;-69
2023/03/09 08:49:04;;;;;;;12.63;8.57;;;;;;;5.16;100.00;99723.50;4994316;28;20207;-69
2023/03/09 08:51:29;;;;;;;12.40;8.53;;;;;;;5.67;100.00;99686.53;4979771;28;20231;-69
2023/03/09 08:53:55;;;;;;;14.13;8.67;;;;;;;5.85;100.00;99721.66;4994898;28;20228;-69
2023/03/09 08:56:21;;;;;;;13.43;9.10;;;;;;;5.74;100.00;99652.81;4994088;28;20204;-69
2023/03/09 08:58:47;;;;;;;13.47;9.13;;;;;;;5.73;100.00;99612.16;4991872;28;20221;-69
2023/03/09 09:01:12;;;;;;;12.63;8.67;;;;;;;5.95;100.00;99597.34;4992830;28;20722;-69
2023/03/09 09:03:40;;;;;;;12.27;8.07;;;;;;;6.53;100.00;99556.78;4988129;28;20243;-69
2023/03/09 09:06:08;;;;;;;10.57;8.47;;;;;;;7.34;100.00;99506.94;4990270;28;20207;-70
2023/03/09 09:08:34;;;;;;;18.03;11.30;;;;;;;7.65;100.00;99417.22;4991771;28;20196;-70
2023/03/09 09:10:59;;;;;;;11.30;7.90;;;;;;;8.20;100.00;99364.94;4995101;28;20208;-70
2023/03/09 09:13:25;;;;;;;12.07;8.33;;;;;;;7.89;100.00;99272.19;4992746;28;20207;-69
2023/03/09 09:15:55;;;;;;;12.43;8.33;;;;;;;8.48;100.00;99254.56;4995470;28;20286;-70
2023/03/09 09:18:21;;;;;;;10.97;7.90;;;;;;;8.45;100.00;99249.44;4993257;28;20192;-70
2023/03/09 09:20:47;;;;;;;9.57;7.60;;;;;;;9.08;93.50;99194.16;4994289;28;20257;-70
2023/03/09 09:23:13;;;;;;;8.93;6.97;;;;;;;9.30;90.17;99142.19;4991471;28;21131;-70
2023/03/09 09:25:39;;;;;;;8.60;7.43;;;;;;;10.13;75.44;98990.94;4997955;28;20974;-69
2023/03/09 09:28:05;;;;;;;9.37;7.70;;;;;;;11.34;64.09;98870.84;4988450;28;20282;-69
2023/03/09 09:30:32;;;;;;;9.87;7.07;;;;;;;11.95;56.36;98717.63;4991455;28;20208;-70
2023/03/09 09:33:04;;;;;;;7.47;6.73;;;;;;;13.34;51.52;98628.69;4992756;28;20196;-70
2023/03/09 09:35:30;;;;;;;9.00;7.20;;;;;;;10.02;61.75;98778.78;4995700;28;20224;-69
2023/03/09 09:37:57;;;;;;;10.33;7.80;;;;;;;12.78;56.39;98791.94;4993907;28;20204;-69
2023/03/09 09:40:23;;;;;;;8.27;6.87;;;;;;;14.17;48.55;98530.97;4989518;28;20196;-69
2023/03/09 09:42:49;;;;;;;11.10;7.40;;;;;;;11.65;53.64;98665.25;4995525;28;20258;-69
2023/03/09 09:45:31;;;;;;;8.33;7.40;;;;;;;12.04;52.88;98699.50;4993355;28;20758;-69
2023/03/09 09:48:00;;;;;;;7.63;6.10;;;;;;;11.00;52.93;98701.47;4990372;28;20207;-70
2023/03/09 09:50:42;;;;;;;10.03;7.10;;;;;;;8.70;68.85;98916.97;4994568;28;20649;-69
2023/03/09 09:53:25;;;;;;;13.10;7.90;;;;;;;8.22;81.35;99085.38;4992454;28;20207;-69
2023/03/09 09:55:52;;;;;;;10.77;7.80;;;;;;;7.64;87.24;99165.91;4992214;28;20219;-69
2023/03/09 09:58:53;;;;;;;8.17;6.97;;;;;;;7.78;90.46;99235.59;4991024;28;20199;-68
2023/03/09 10:01:29;;;;;;;10.23;7.27;;;;;;;7.47;92.03;99263.47;5020596;28;20427;-68
2023/03/09 10:04:01;;;;;;;10.63;7.13;;;;;;;7.49;95.64;99308.47;4995746;28;20220;-68
2023/03/09 10:06:27;;;;;;;9.50;6.80;;;;;;;7.21;97.51;99341.34;4991409;28;20203;-68
2023/03/09 10:09:22;;;;;;;12.00;6.90;;;;;;;7.02;99.26;99377.66;4988264;28;20203;-69
2023/03/09 10:11:55;;;;;;;10.87;6.67;;;;;;;6.97;100.00;99410.69;4992151;28;20237;-69
2023/03/09 10:14:35;;;;;;;13.43;7.77;;;;;;;6.86;100.00;99439.41;4989132;28;20227;-69
2023/03/09 10:17:06;;;;;;;10.00;7.00;;;;;;;6.74;100.00;99435.03;4990587;28;20214;-68
2023/03/09 10:19:34;;;;;;;11.37;6.57;;;;;;;6.33;98.92;99412.47;4990684;28;20278;-69
2023/03/09 10:22:05;;;;;;;11.97;7.33;;;;;;;6.43;100.00;99442.25;4994811;28;20214;-69
2023/03/09 10:24:39;;;;;;;9.90;7.53;;;;;;;6.49;100.00;99468.59;4988393;28;20708;-68
2023/03/09 10:27:17;;;;;;;8.90;7.10;;;;;;;6.23;100.00;99448.75;4993790;28;20249;-68
2023/03/09 10:30:14;;;;;;;12.23;7.20;;;;;;;6.25;100.00;99500.44;4980287;28;20286;-68
2023/03/09 10:32:40;;;;;;;8.77;6.60;;;;;;;6.01;100.00;99506.03;4977757;28;20701;-69
2023/03/09 10:35:43;;;;;;;13.80;7.63;;;;;;;5.99;100.00;99542.41;4987146;28;20306;-68
2023/03/09 10:38:14;;;;;;;11.37;7.57;;;;;;;6.05;100.00;99567.91;4991348;28;20294;-69
2023/03/09 10:40:48;;;;;;;11.37;7.60;;;;;;;5.91;100.00;99580.38;4993564;28;20587;-69
2023/03/09 10:43:33;;;;;;;9.17;6.90;;;;;;;5.64;100.00;99601.84;4990794;28;20203;-68
2023/03/09 10:46:15;;;;;;;11.00;7.87;;;;;;;5.74;100.00;99680.75;4992416;28;20237;-64
2023/03/09 10:48:43;;;;;;;9.87;7.33;;;;;;;6.00;100.00;99679.63;5009889;28;20599;-67
2023/03/09 10:51:41;;;;;;;11.67;7.40;;;;;;;5.94;100.00;99654.06;4985961;28;20203;-67
2023/03/09 10:54:30;;;;;;;8.63;6.33;;;;;;;6.18;100.00;99641.81;4989475;28;20223;-67
2023/03/09 10:56:55;;;;;;;8.97;7.00;;;;;;;6.11;100.00;99608.63;4988873;28;20696;-66
2023/03/09 10:59:23;;;;;;;12.90;6.93;;;;;;;6.24;100.00;99610.56;4991682;28;20270;-67
2023/03/09 11:01:52;;;;;;;10.30;7.60;;;;;;;6.05;100.00;99595.84;4989958;28;20195;-66
2023/03/09 11:04:23;;;;;;;9.80;7.53;;;;;;;6.09;100.00;99601.03;4991499;28;20728;-69
2023/03/09 11:06:57;;;;;;;12.53;8.20;;;;;;;6.08;100.00;99611.16;4990136;28;20745;-69
2023/03/09 11:09:25;;;;;;;8.77;6.60;;;;;;;6.03;100.00;99610.22;4965158;28;20210;-69
2023/03/09 11:11:51;;;;;;;10.80;6.97;;;;;;;5.92;100.00;99609.16;4987627;28;20210;-68
2023/03/09 11:14:29;;;;;;;11.40;8.03;;;;;;;6.05;100.00;99614.50;4989779;28;20590;-69
2023/03/09 11:16:57;;;;;;;10.73;7.00;;;;;;;6.04;100.00;99607.69;4971697;28;20643;-69
2023/03/09 11:19:23;;;;;;;11.07;7.37;;;;;;;5.79;100.00;99604.66;4986942;28;20239;-69
2023/03/09 11:22:01;;;;;;;11.63;7.17;;;;;;;5.82;100.00;99617.44;4992252;28;20199;-68
2023/03/09 11:24:36;;;;;;;11.33;7.63;;;;;;;5.99;100.00;99642.31;4993184;28;20263;-69
2023/03/09 11:27:05;;;;;;;9.80;6.77;;;;;;;6.02;100.00;99621.19;4984938;28;20289;-69
2023/03/09 11:30:14;;;;;;;9.20;7.17;;;;;;;6.04;100.00;99617.84;4991863;28;20287;-69
2023/03/09 11:32:40;;;;;;;9.40;7.47;;;;;;;6.12;100.00;99621.38;5003058;28;20202;-69